createdAt,value
2022-10-05T07:05:46.670Z,9.65
2022-10-05T07:08:21.830Z,11.52
2022-10-05T07:15:11.587Z,9.98
2022-10-05T07:22:47.691Z,7.07
2022-10-05T07:25:21.545Z,11.30
2022-10-05T07:33:30.387Z,11.32
2022-10-05T07:36:25.442Z,7.40
2022-10-05T07:39:00.918Z,6.40
2022-10-05T07:44:14.312Z,12.20
2022-10-05T07:46:55.874Z,6.93
2022-10-05T07:49:39.001Z,9.98
2022-10-05T07:52:14.193Z,11.70
2022-10-05T07:54:51.834Z,10.97
2022-10-05T07:57:29.753Z,8.77
2022-10-05T08:00:04.873Z,6.07
2022-10-05T08:02:46.399Z,9.27
2022-10-05T08:05:23.433Z,11.05
2022-10-05T08:07:56.874Z,15.07
2022-10-05T08:10:31.972Z,13.80
2022-10-05T08:13:09.154Z,16.75
2022-10-05T08:15:43.210Z,15.38
2022-10-05T08:18:18.594Z,16.73
2022-10-05T08:20:51.276Z,10.48
2022-10-05T08:23:25.356Z,15.77
2022-10-05T08:26:03.990Z,11.63
2022-10-05T08:28:35.704Z,13.60
2022-10-05T08:31:15.051Z,10.55
2022-10-05T08:33:53.874Z,12.00
2022-10-05T08:36:33.110Z,10.00
2022-10-05T08:39:06.189Z,12.40
2022-10-05T08:42:13.203Z,10.82
2022-10-05T08:45:22.235Z,12.73
2022-10-05T08:48:29.073Z,9.88
2022-10-05T08:51:37.840Z,8.70
2022-10-05T08:54:39.626Z,10.73
2022-10-05T08:57:31.074Z,8.55
2022-10-05T09:00:09.319Z,12.82
2022-10-05T09:02:51.038Z,8.82
2022-10-05T09:05:40.833Z,15.27
2022-10-05T09:08:33.029Z,7.45
2022-10-05T09:11:06.552Z,10.07
2022-10-05T09:13:58.230Z,16.77
2022-10-05T09:16:36.433Z,7.35
2022-10-05T09:19:22.831Z,6.40
2022-10-05T09:21:59.746Z,6.63
2022-10-05T09:24:48.654Z,12.13
2022-10-05T09:27:19.231Z,9.20
2022-10-05T09:30:21.834Z,8.48
2022-10-05T09:33:29.914Z,9.68
2022-10-05T09:36:21.577Z,7.40
2022-10-05T09:39:25.552Z,8.48
2022-10-05T09:42:11.385Z,9.68
2022-10-05T09:48:05.234Z,12.77
2022-10-05T09:51:14.070Z,9.45
2022-10-05T09:54:10.833Z,6.60
2022-10-05T09:57:08.074Z,10.30
2022-10-05T10:00:15.352Z,4.47
2022-10-05T10:03:20.484Z,5.65
2022-10-05T10:06:05.509Z,6.38
2022-10-05T10:08:44.792Z,8.27
2022-10-05T10:11:41.673Z,8.23
2022-10-05T10:14:29.108Z,10.93
2022-10-05T10:17:23.226Z,5.75
2022-10-05T10:20:14.748Z,9.13
2022-10-05T10:23:19.631Z,5.57
2022-10-05T10:26:12.672Z,5.20
2022-10-05T10:29:20.277Z,3.58
2022-10-05T10:32:14.158Z,5.57
2022-10-05T10:35:09.653Z,5.80
2022-10-05T10:38:22.353Z,4.82
2022-10-05T10:41:25.603Z,6.03
2022-10-05T10:44:16.246Z,6.10
2022-10-05T10:46:55.861Z,5.03
2022-10-05T10:49:40.472Z,5.75
2022-10-05T10:52:31.507Z,3.47
2022-10-05T10:55:27.790Z,6.10
2022-10-05T11:01:18.807Z,2.75
2022-10-05T11:04:03.715Z,6.57
2022-10-05T11:06:51.795Z,3.30
2022-10-05T11:09:42.476Z,3.40
2022-10-05T11:12:41.394Z,5.22
2022-10-05T11:15:58.788Z,4.88
2022-10-05T11:18:40.588Z,3.47
2022-10-05T11:21:25.793Z,8.10
2022-10-05T11:24:27.591Z,4.72
2022-10-05T11:30:38.666Z,5.07
2022-10-05T11:33:40.242Z,3.05
2022-10-05T11:36:41.122Z,4.38
2022-10-05T11:39:38.313Z,5.32
2022-10-05T11:42:40.474Z,4.07
2022-10-05T11:45:27.517Z,3.63
2022-10-05T11:48:34.954Z,5.88
2022-10-05T11:51:30.202Z,3.20
2022-10-05T11:54:17.752Z,3.30
2022-10-05T11:56:53.858Z,3.33
2022-10-05T11:59:31.512Z,2.55
2022-10-05T12:02:16.950Z,7.03
2022-10-05T12:04:54.319Z,3.72
2022-10-05T12:07:30.358Z,4.20
2022-10-05T12:10:17.119Z,2.80
2022-10-05T12:13:01.419Z,4.88
2022-10-05T12:15:36.192Z,6.13
2022-10-05T12:18:13.764Z,7.27
2022-10-05T12:20:48.909Z,3.83
2022-10-05T12:23:26.149Z,3.17
2022-10-05T12:26:01.349Z,3.65
2022-10-05T12:28:37.586Z,2.60
2022-10-05T12:31:21.052Z,2.83
2022-10-05T12:34:01.830Z,4.30
2022-10-05T12:37:02.458Z,3.17
2022-10-05T12:39:35.546Z,5.87
2022-10-05T12:42:17.203Z,3.38
2022-10-05T12:45:14.845Z,1.67
2022-10-05T12:48:00.748Z,3.35
2022-10-05T12:50:36.843Z,3.38
2022-10-05T12:53:20.275Z,2.70
2022-10-05T12:55:56.123Z,3.78
2022-10-05T12:58:33.827Z,3.97
2022-10-05T13:01:08.223Z,5.15
2022-10-05T13:03:40.562Z,4.97
2022-10-05T13:06:22.832Z,3.45
2022-10-05T13:08:57.425Z,4.75
2022-10-05T13:11:35.334Z,2.67
2022-10-05T13:14:17.730Z,2.85
2022-10-05T13:16:55.158Z,2.40
2022-10-05T13:19:40.510Z,2.17
2022-10-05T13:22:28.642Z,3.22
2022-10-05T13:25:09.636Z,6.85
2022-10-05T13:27:43.588Z,4.50
2022-10-05T13:30:17.149Z,4.90
2022-10-05T13:32:49.003Z,2.88
2022-10-05T13:35:38.751Z,2.65
2022-10-05T13:38:19.994Z,2.80
2022-10-05T13:40:54.830Z,2.50
2022-10-05T13:43:32.117Z,2.55
2022-10-05T13:46:12.338Z,1.85
2022-10-05T13:48:52.606Z,3.00
2022-10-05T13:51:24.427Z,2.75
2022-10-05T13:54:02.474Z,7.40
2022-10-05T13:56:33.233Z,3.10
2022-10-05T13:59:12.252Z,2.63
2022-10-05T14:01:45.263Z,3.42
2022-10-05T14:04:19.951Z,1.90
2022-10-05T14:06:49.748Z,7.18
2022-10-05T14:09:31.679Z,5.63
2022-10-05T14:12:20.833Z,1.98
2022-10-05T14:14:52.038Z,4.88
2022-10-05T14:17:40.437Z,1.73
2022-10-05T14:20:22.865Z,5.72
2022-10-05T14:22:55.666Z,4.75
2022-10-05T14:25:25.723Z,3.30
2022-10-05T14:28:01.320Z,2.33
2022-10-05T14:30:31.312Z,1.50
2022-10-05T14:33:14.212Z,3.65
2022-10-05T14:35:49.434Z,1.98
2022-10-05T14:38:21.590Z,2.75
2022-10-05T14:41:18.879Z,3.75
2022-10-05T14:43:52.779Z,2.03
2022-10-05T14:46:29.044Z,4.47
2022-10-05T14:49:21.649Z,4.88
2022-10-05T14:51:51.364Z,2.05
2022-10-05T14:54:31.593Z,3.95
2022-10-05T14:57:08.346Z,1.40
2022-10-05T15:00:04.095Z,2.72
2022-10-05T15:03:04.648Z,3.72
2022-10-05T15:05:39.337Z,2.92
2022-10-05T15:08:19.398Z,5.22
2022-10-05T15:10:52.311Z,1.63
2022-10-05T15:13:25.524Z,2.33
2022-10-05T15:15:56.705Z,3.63
2022-10-05T15:18:40.554Z,3.20
2022-10-05T15:21:28.505Z,5.03
2022-10-05T15:24:01.915Z,2.38
2022-10-05T15:26:40.548Z,3.13
2022-10-05T15:29:26.178Z,3.90
2022-10-05T15:31:59.953Z,4.22
2022-10-05T15:34:36.265Z,4.32
2022-10-05T15:37:16.236Z,6.00
2022-10-05T15:39:52.388Z,3.80
2022-10-05T15:42:25.991Z,6.30
2022-10-05T15:45:07.910Z,11.10
2022-10-05T15:47:49.225Z,28.48
2022-10-05T15:50:24.353Z,53.65
2022-10-05T15:52:59.012Z,14.80
2022-10-05T15:55:36.392Z,27.73
2022-10-05T15:58:28.905Z,34.67
2022-10-05T16:01:04.745Z,43.38
2022-10-05T16:03:45.188Z,31.15
2022-10-05T16:06:52.307Z,28.90
2022-10-05T16:09:35.627Z,27.30
2022-10-05T16:12:13.673Z,45.40
2022-10-05T16:14:56.470Z,52.30
2022-10-05T16:17:43.951Z,33.85
2022-10-05T16:20:26.279Z,48.20
2022-10-05T16:23:03.070Z,49.75
2022-10-05T16:25:43.234Z,41.65
2022-10-05T16:28:29.385Z,29.08
2022-10-05T16:31:04.165Z,27.40
2022-10-05T16:33:54.488Z,16.98
2022-10-05T16:36:36.506Z,30.42
2022-10-05T16:39:12.752Z,24.38
2022-10-05T16:41:49.348Z,20.40
2022-10-05T16:44:29.715Z,15.30
2022-10-05T16:47:00.911Z,9.93
2022-10-05T16:49:39.997Z,16.95
2022-10-05T16:52:13.870Z,12.43
2022-10-05T16:54:48.060Z,16.58
2022-10-05T16:57:22.154Z,8.43
2022-10-05T17:00:16.123Z,7.50
2022-10-05T17:03:08.385Z,24.75
2022-10-05T17:06:17.996Z,11.90
2022-10-05T17:09:11.192Z,12.23
2022-10-05T17:11:54.829Z,13.45
2022-10-05T17:14:39.117Z,15.05
2022-10-05T17:17:38.545Z,6.85
2022-10-05T17:20:31.465Z,10.13
2022-10-05T17:23:06.349Z,9.43
2022-10-05T17:25:46.031Z,10.80
